Time;durP1;ratioP1;P1;durP2;ratioP2;P2;SDS_P1;SDS_P2;PMS_P1;PMS_P2;Temp;Humidity;BMP_temperature;BMP_pressure;BME280_temperature;BME280_humidity;BME280_pressure;Samples;Min_cycle;Max_cycle;Signal;HPM_P1;HPM_P2
2022/10/09 00:00:21;;;;;;;10.45;5.45;;;23.90;59.10;;;;;;5031095;28;20034;-68
2022/10/09 00:02:47;;;;;;;5.40;4.40;;;24.00;59.00;;;;;;5032233;28;20245;-69
2022/10/09 00:05:13;;;;;;;14.43;5.32;;;24.00;59.00;;;;;;5030777;28;20057;-69
2022/10/09 00:07:39;;;;;;;6.38;4.90;;;24.00;58.80;;;;;;5032237;28;20025;-69
2022/10/09 00:10:06;;;;;;;9.55;5.57;;;23.90;58.80;;;;;;5032301;28;20045;-70
2022/10/09 00:12:32;;;;;;;9.98;5.45;;;23.90;58.80;;;;;;5031940;28;20038;-69
2022/10/09 00:14:58;;;;;;;12.20;5.55;;;23.90;58.90;;;;;;5032024;28;20036;-69
2022/10/09 00:17:24;;;;;;;7.60;5.07;;;24.00;58.90;;;;;;5031912;28;20036;-69
2022/10/09 00:19:50;;;;;;;8.25;4.95;;;24.00;58.90;;;;;;5031906;28;20037;-70
2022/10/09 00:22:16;;;;;;;9.52;4.82;;;23.80;58.80;;;;;;5031747;28;20030;-68
2022/10/09 00:24:42;;;;;;;7.93;5.00;;;23.90;59.00;;;;;;5031903;28;20451;-68
2022/10/09 00:27:08;;;;;;;6.43;4.55;;;23.80;58.90;;;;;;5029353;28;20116;-69
2022/10/09 00:29:34;;;;;;;7.68;4.68;;;23.80;59.00;;;;;;5030893;28;20562;-70
2022/10/09 00:32:00;;;;;;;10.27;5.18;;;23.80;59.00;;;;;;5030777;28;20026;-69
2022/10/09 00:34:26;;;;;;;10.30;5.70;;;23.70;59.00;;;;;;5030924;28;20092;-69
2022/10/09 00:36:52;;;;;;;13.48;6.00;;;23.80;59.10;;;;;;5031411;28;20038;-69
2022/10/09 00:39:18;;;;;;;8.85;5.50;;;23.80;59.00;;;;;;5031456;28;20045;-71
2022/10/09 00:41:44;;;;;;;11.30;5.65;;;23.70;59.00;;;;;;5031363;28;20060;-69
2022/10/09 00:44:48;;;;;;;15.18;6.00;;;23.80;58.90;;;;;;5029038;28;20033;-69
2022/10/09 00:47:38;;;;;;;18.13;6.55;;;23.80;58.90;;;;;;5011882;28;20046;-69
2022/10/09 00:50:12;;;;;;;10.57;6.45;;;23.90;59.00;;;;;;5022321;28;20423;-70
2022/10/09 00:52:38;;;;;;;11.85;7.38;;;23.90;58.90;;;;;;5031195;28;20037;-69
2022/10/09 00:55:06;;;;;;;15.25;6.90;;;23.80;58.80;;;;;;5013494;28;20399;-70
2022/10/09 00:57:32;;;;;;;12.68;6.40;;;23.80;58.80;;;;;;5031360;28;20041;-70
2022/10/09 01:00:03;;;;;;;16.23;6.75;;;23.80;58.80;;;;;;5031212;28;20462;-70
2022/10/09 01:02:29;;;;;;;13.43;6.75;;;23.80;58.80;;;;;;5030910;28;20140;-68
2022/10/09 01:04:55;;;;;;;14.70;6.63;;;23.90;59.00;;;;;;5031090;28;20074;-69
2022/10/09 01:07:45;;;;;;;9.15;5.50;;;23.70;58.90;;;;;;5031029;28;20483;-69
2022/10/09 01:10:11;;;;;;;12.70;6.63;;;23.80;58.90;;;;;;5029529;28;20037;-69
2022/10/09 01:12:43;;;;;;;12.75;6.40;;;23.70;58.90;;;;;;5030330;28;20478;-68
2022/10/09 01:15:49;;;;;;;7.38;5.05;;;23.70;58.90;;;;;;5030492;28;20037;-69
2022/10/09 01:18:24;;;;;;;11.70;5.78;;;23.70;59.00;;;;;;5030084;28;20076;-69
2022/10/09 01:20:55;;;;;;;11.50;6.43;;;23.70;59.10;;;;;;5030191;28;20540;-69
2022/10/09 01:23:45;;;;;;;8.40;4.95;;;23.70;59.00;;;;;;5029871;28;20030;-69
2022/10/09 01:26:30;;;;;;;8.93;5.03;;;23.70;58.90;;;;;;5030288;28;20044;-69
2022/10/09 01:29:01;;;;;;;8.68;6.07;;;23.70;59.00;;;;;;5028010;28;20082;-69
2022/10/09 01:31:31;;;;;;;10.23;6.45;;;23.70;58.90;;;;;;5028186;28;20120;-70
2022/10/09 01:33:58;;;;;;;10.88;6.13;;;23.70;58.80;;;;;;5028193;28;20120;-69
2022/10/09 01:36:26;;;;;;;9.57;5.60;;;23.70;58.90;;;;;;5028278;28;20045;-69
2022/10/09 01:38:55;;;;;;;9.38;5.90;;;23.80;58.80;;;;;;5029268;28;20045;-70
2022/10/09 01:41:21;;;;;;;10.18;5.55;;;23.80;58.70;;;;;;5028168;28;20052;-69
2022/10/09 01:43:47;;;;;;;10.65;5.20;;;23.80;58.80;;;;;;5032233;28;20467;-69
2022/10/09 01:46:21;;;;;;;12.88;6.05;;;23.70;58.80;;;;;;5032079;28;20088;-70
2022/10/09 01:49:10;;;;;;;9.20;6.20;;;23.70;58.80;;;;;;5032179;28;20045;-70
2022/10/09 01:51:55;;;;;;;15.40;6.50;;;23.70;58.90;;;;;;5031953;28;20045;-68
2022/10/09 01:54:47;;;;;;;11.88;6.07;;;23.50;58.90;;;;;;5015144;28;20041;-69
2022/10/09 01:57:16;;;;;;;7.55;4.80;;;23.60;58.90;;;;;;5031325;28;20057;-69
2022/10/09 01:59:45;;;;;;;10.90;5.72;;;23.50;58.90;;;;;;5031939;28;20068;-69
2022/10/09 02:02:11;;;;;;;9.98;5.68;;;23.50;59.00;;;;;;5033839;28;20371;-70
2022/10/09 02:04:41;;;;;;;9.95;5.05;;;23.50;59.10;;;;;;5033514;28;20099;-69
2022/10/09 02:07:07;;;;;;;12.35;5.70;;;23.40;59.00;;;;;;5033428;28;20117;-70
2022/10/09 02:09:36;;;;;;;7.55;4.95;;;23.40;59.00;;;;;;5014884;28;20045;-69
2022/10/09 02:12:08;;;;;;;9.50;5.32;;;23.50;59.00;;;;;;5030707;28;20046;-68
2022/10/09 02:14:35;;;;;;;10.05;5.32;;;23.40;58.90;;;;;;5030834;28;20115;-69
2022/10/09 02:17:10;;;;;;;7.50;5.47;;;23.50;58.90;;;;;;5031062;28;20037;-69
2022/10/09 02:19:45;;;;;;;12.45;5.35;;;23.50;58.90;;;;;;5014870;28;20107;-69
2022/10/09 02:22:14;;;;;;;10.73;5.47;;;23.50;58.80;;;;;;5031811;28;20033;-69
2022/10/09 02:24:41;;;;;;;7.57;5.53;;;23.60;58.80;;;;;;5031400;28;20172;-69
2022/10/09 02:27:09;;;;;;;7.38;5.03;;;23.60;58.70;;;;;;5031299;28;20718;-69
2022/10/09 02:29:38;;;;;;;7.78;6.00;;;23.70;58.80;;;;;;5031479;28;20462;-70
2022/10/09 02:32:04;;;;;;;12.35;6.60;;;23.60;58.70;;;;;;5031367;28;20146;-70
2022/10/09 02:34:31;;;;;;;10.02;6.43;;;23.50;58.70;;;;;;5031222;28;20171;-69
2022/10/09 02:36:57;;;;;;;12.45;6.43;;;23.50;58.70;;;;;;5031152;28;20041;-69
2022/10/09 02:39:23;;;;;;;11.98;5.88;;;23.50;58.70;;;;;;5030511;28;20487;-69
2022/10/09 02:41:49;;;;;;;8.75;5.60;;;23.50;58.80;;;;;;5031289;28;20050;-69
2022/10/09 02:44:15;;;;;;;7.18;5.00;;;23.40;58.70;;;;;;4998372;28;20045;-71
2022/10/09 02:46:41;;;;;;;8.90;5.68;;;23.40;58.70;;;;;;5033571;28;20168;-69
2022/10/09 02:49:07;;;;;;;10.10;6.13;;;23.40;58.80;;;;;;5033761;28;20116;-70
2022/10/09 02:51:33;;;;;;;9.80;5.60;;;23.50;58.90;;;;;;5032736;28;20449;-70
2022/10/09 02:53:59;;;;;;;10.15;5.22;;;23.40;58.80;;;;;;5031889;28;20021;-69
2022/10/09 02:56:26;;;;;;;8.05;5.47;;;23.30;58.90;;;;;;5033445;28;20041;-69
2022/10/09 02:58:52;;;;;;;8.65;5.20;;;23.40;58.80;;;;;;5032335;28;20041;-69
2022/10/09 03:01:18;;;;;;;6.35;5.40;;;23.40;58.70;;;;;;5032238;28;20037;-69
2022/10/09 03:03:44;;;;;;;9.68;5.70;;;23.30;58.70;;;;;;5033447;28;20033;-69
2022/10/09 03:06:16;;;;;;;8.32;5.63;;;23.40;58.70;;;;;;5033654;28;20397;-69
2022/10/09 03:08:45;;;;;;;9.90;5.63;;;23.40;58.60;;;;;;5031881;28;20069;-69
2022/10/09 03:11:13;;;;;;;15.07;6.22;;;23.40;58.60;;;;;;5033492;28;20040;-69
2022/10/09 03:13:39;;;;;;;7.22;5.28;;;23.40;58.50;;;;;;5032396;28;20326;-70
2022/10/09 03:16:10;;;;;;;9.05;5.38;;;23.50;58.60;;;;;;5032926;28;20061;-69
2022/10/09 03:18:37;;;;;;;10.45;5.30;;;23.40;58.50;;;;;;5032547;28;20387;-69
2022/10/09 03:21:24;;;;;;;6.82;5.32;;;23.50;58.60;;;;;;5032811;28;20346;-69
2022/10/09 03:23:50;;;;;;;8.00;4.68;;;23.30;58.60;;;;;;5032927;28;20022;-69
2022/10/09 03:26:19;;;;;;;8.50;5.32;;;23.40;58.60;;;;;;5031499;28;20041;-70
2022/10/09 03:28:47;;;;;;;8.35;5.45;;;23.40;58.60;;;;;;5033398;28;20383;-69
2022/10/09 03:31:15;;;;;;;8.65;5.45;;;23.30;58.70;;;;;;5032960;28;20083;-69
2022/10/09 03:33:41;;;;;;;9.20;5.28;;;23.20;58.60;;;;;;5032602;28;20692;-69
2022/10/09 03:36:08;;;;;;;6.68;4.85;;;23.30;58.70;;;;;;5031230;28;20247;-70
2022/10/09 03:38:35;;;;;;;9.18;5.80;;;23.30;58.70;;;;;;5032015;28;20029;-69
2022/10/09 03:41:02;;;;;;;8.82;5.30;;;23.30;58.60;;;;;;5032181;28;20087;-70
2022/10/09 03:43:28;;;;;;;8.85;4.93;;;23.20;58.50;;;;;;5032541;28;20032;-67
2022/10/09 03:45:55;;;;;;;6.10;4.75;;;23.10;58.50;;;;;;5032193;28;20049;-69
2022/10/09 03:48:21;;;;;;;8.55;6.22;;;23.30;58.50;;;;;;5032673;28;20030;-70
2022/10/09 03:50:47;;;;;;;8.00;5.45;;;23.20;58.40;;;;;;5032314;28;20106;-70
2022/10/09 03:53:14;;;;;;;8.52;4.05;;;23.30;58.50;;;;;;5032584;28;20522;-72
2022/10/09 03:55:41;;;;;;;4.82;3.53;;;23.40;58.40;;;;;;5032602;28;20499;-70
2022/10/09 03:58:07;;;;;;;7.72;3.50;;;23.60;57.70;;;;;;5032428;28;20045;-70
2022/10/09 04:00:34;;;;;;;4.88;3.97;;;23.70;57.10;;;;;;5032402;28;20033;-70
2022/10/09 04:03:00;;;;;;;8.88;5.57;;;23.80;56.60;;;;;;5032445;28;20029;-69
2022/10/09 04:05:26;;;;;;;8.55;5.75;;;24.00;56.10;;;;;;5032268;28;20061;-69
2022/10/09 04:07:52;;;;;;;10.90;5.25;;;23.80;56.10;;;;;;5032000;28;20033;-69
2022/10/09 04:10:18;;;;;;;8.48;5.60;;;23.70;56.50;;;;;;5032202;28;20038;-68
2022/10/09 04:12:44;;;;;;;11.02;5.70;;;23.70;58.40;;;;;;5031950;28;20441;-70
2022/10/09 04:15:10;;;;;;;7.35;5.20;;;23.90;60.30;;;;;;5031893;28;20132;-68
2022/10/09 04:17:36;;;;;;;11.45;5.70;;;24.40;62.60;;;;;;5031966;28;20455;-70
2022/10/09 04:20:03;;;;;;;7.50;5.97;;;24.30;64.80;;;;;;5031960;28;20030;-69
2022/10/09 04:22:29;;;;;;;9.55;5.95;;;24.40;64.00;;;;;;5031013;28;20083;-68
2022/10/09 04:24:55;;;;;;;9.90;5.93;;;24.70;63.00;;;;;;5030460;28;20036;-69
2022/10/09 04:27:21;;;;;;;13.75;5.60;;;24.50;60.00;;;;;;5032094;28;20455;-69
2022/10/09 04:29:47;;;;;;;8.77;6.13;;;24.40;59.70;;;;;;5031514;28;20132;-68
2022/10/09 04:32:13;;;;;;;9.57;4.68;;;24.20;60.00;;;;;;5031716;28;20421;-70
2022/10/09 04:34:39;;;;;;;7.05;5.10;;;24.20;61.10;;;;;;5029732;28;20025;-70
2022/10/09 04:37:05;;;;;;;7.60;5.10;;;24.30;59.70;;;;;;5031111;28;20037;-70
2022/10/09 04:39:31;;;;;;;9.63;5.70;;;24.40;58.20;;;;;;5030816;28;20033;-71
2022/10/09 04:41:57;;;;;;;9.30;5.20;;;24.50;56.90;;;;;;5031042;28;20029;-71
2022/10/09 04:44:23;;;;;;;9.60;5.70;;;24.40;55.40;;;;;;5012032;28;20049;-71
2022/10/09 04:46:50;;;;;;;11.90;6.65;;;24.60;54.40;;;;;;5030594;28;20026;-72
2022/10/09 04:49:16;;;;;;;9.77;6.28;;;24.60;53.40;;;;;;5030550;28;20483;-73
2022/10/09 04:51:43;;;;;;;1.92;1.75;;;24.50;52.40;;;;;;5030370;28;20021;-71
2022/10/09 04:54:11;;;;;;;1.42;1.00;;;24.60;51.20;;;;;;5030319;28;20029;-72
2022/10/09 04:56:37;;;;;;;0.80;0.80;;;24.50;49.50;;;;;;5030272;28;20109;-73
2022/10/09 04:59:03;;;;;;;9.55;5.35;;;24.50;47.60;;;;;;5030412;28;20033;-71
2022/10/09 05:01:29;;;;;;;7.47;4.65;;;24.50;48.60;;;;;;5029494;28;20038;-71
2022/10/09 05:03:55;;;;;;;7.82;5.03;;;24.60;50.20;;;;;;5030483;28;20120;-71
2022/10/09 05:06:23;;;;;;;8.70;5.35;;;24.60;48.70;;;;;;5030649;28;20111;-71
2022/10/09 05:08:50;;;;;;;10.48;8.43;;;24.70;50.10;;;;;;5030319;28;20418;-70
2022/10/09 05:11:19;;;;;;;11.90;6.95;;;24.60;47.50;;;;;;5030297;28;20044;-71
2022/10/09 05:13:47;;;;;;;10.35;5.80;;;24.60;48.10;;;;;;5028662;28;20029;-69
2022/10/09 05:16:16;;;;;;;9.40;6.57;;;24.50;47.90;;;;;;5029965;28;20474;-69
2022/10/09 05:18:45;;;;;;;7.82;6.00;;;24.60;47.60;;;;;;5030204;28;20052;-67
2022/10/09 05:21:11;;;;;;;9.88;6.13;;;24.40;47.00;;;;;;5030794;28;20033;-70
2022/10/09 05:23:38;;;;;;;8.65;5.97;;;24.50;47.40;;;;;;5029458;28;20038;-70
2022/10/09 05:26:13;;;;;;;11.32;5.93;;;24.50;54.40;;;;;;5029560;28;20470;-71
2022/10/09 05:28:39;;;;;;;14.27;6.40;;;24.50;55.40;;;;;;5030583;28;20492;-71
2022/10/09 05:31:07;;;;;;;9.82;6.10;;;24.40;55.20;;;;;;5029836;28;20025;-69
2022/10/09 05:33:34;;;;;;;10.95;5.82;;;24.40;54.70;;;;;;5030406;28;20138;-69
2022/10/09 05:36:03;;;;;;;12.13;6.40;;;24.40;55.10;;;;;;5029154;28;20037;-68
2022/10/09 05:38:31;;;;;;;8.02;6.18;;;24.30;55.80;;;;;;5011769;28;20046;-71
2022/10/09 05:40:59;;;;;;;14.05;6.30;;;24.10;56.00;;;;;;5030530;28;20033;-70
2022/10/09 05:43:37;;;;;;;12.05;7.05;;;24.10;56.40;;;;;;5030737;28;20113;-68
2022/10/09 05:46:12;;;;;;;15.13;8.15;;;24.00;56.60;;;;;;5030507;28;20034;-68
2022/10/09 05:48:40;;;;;;;9.02;6.90;;;24.00;56.80;;;;;;5030723;28;20030;-71
2022/10/09 05:51:16;;;;;;;14.93;6.63;;;24.00;57.90;;;;;;5030725;28;20061;-70
2022/10/09 05:53:43;;;;;;;14.05;7.50;;;23.90;57.70;;;;;;5031112;28;20572;-75
2022/10/09 05:56:21;;;;;;;12.13;7.60;;;24.00;57.40;;;;;;5029863;28;20025;-74
2022/10/09 05:59:00;;;;;;;15.63;7.88;;;23.80;57.30;;;;;;5013593;28;20045;-71
2022/10/09 06:01:29;;;;;;;12.52;8.02;;;23.80;57.30;;;;;;5028391;28;20060;-71
2022/10/09 06:03:57;;;;;;;12.02;6.82;;;23.80;57.50;;;;;;5029942;28;20121;-72
2022/10/09 06:06:25;;;;;;;12.88;7.45;;;23.90;57.60;;;;;;5028970;28;20537;-73
2022/10/09 06:08:52;;;;;;;22.50;8.50;;;23.80;58.20;;;;;;5030309;28;20034;-73
2022/10/09 06:11:23;;;;;;;10.27;7.22;;;23.80;58.60;;;;;;5030932;28;20482;-74
2022/10/09 06:13:50;;;;;;;12.55;7.63;;;23.80;58.80;;;;;;5030628;28;20060;-73
2022/10/09 06:16:17;;;;;;;14.32;8.45;;;23.70;59.00;;;;;;5030498;28;20533;-74
2022/10/09 06:18:46;;;;;;;9.82;7.22;;;23.80;59.00;;;;;;5029593;28;20732;-74
2022/10/09 06:21:12;;;;;;;13.02;8.20;;;23.80;58.90;;;;;;5030403;28;20463;-74
2022/10/09 06:23:38;;;;;;;14.35;8.32;;;23.80;59.00;;;;;;5013480;28;20128;-74
2022/10/09 06:26:07;;;;;;;13.57;8.50;;;23.90;59.30;;;;;;5031243;28;20113;-74
2022/10/09 06:28:34;;;;;;;15.18;8.73;;;23.90;59.20;;;;;;5033285;28;20037;-74
2022/10/09 06:31:11;;;;;;;21.77;8.52;;;24.00;59.20;;;;;;5033766;28;20037;-74
2022/10/09 06:33:40;;;;;;;13.90;7.93;;;23.80;59.20;;;;;;5033010;28;20041;-74
2022/10/09 06:36:12;;;;;;;14.18;8.05;;;23.90;59.30;;;;;;5032384;28;20411;-72
2022/10/09 06:38:39;;;;;;;14.65;7.82;;;24.00;58.80;;;;;;5034313;28;20033;-72
2022/10/09 06:41:11;;;;;;;15.52;9.23;;;24.20;58.40;;;;;;5031867;28;20052;-75
2022/10/09 06:43:38;;;;;;;12.57;8.33;;;24.30;58.30;;;;;;5033493;28;20041;-70
2022/10/09 06:46:08;;;;;;;17.10;8.48;;;24.40;58.20;;;;;;5033162;28;20071;-70
2022/10/09 06:48:37;;;;;;;15.43;7.65;;;24.40;58.50;;;;;;5033755;28;20025;-71
2022/10/09 06:51:10;;;;;;;10.32;7.78;;;24.40;58.40;;;;;;5015929;28;20473;-71
2022/10/09 06:53:39;;;;;;;;;;;24.60;58.20;;;;;;5032755;28;20479;-72
2022/10/09 06:56:07;;;;;;;14.18;7.90;;;24.50;58.10;;;;;;5033409;28;19921;-70
2022/10/09 06:58:34;;;;;;;12.00;6.65;;;24.50;58.10;;;;;;5033588;28;20512;-72
2022/10/09 07:01:12;;;;;;;20.55;8.77;;;24.60;58.10;;;;;;5033365;28;20036;-73
2022/10/09 07:03:40;;;;;;;12.52;7.82;;;24.80;57.90;;;;;;5033519;28;20044;-74
2022/10/09 07:06:18;;;;;;;13.52;7.88;;;24.80;57.80;;;;;;5033414;28;20145;-72
2022/10/09 07:08:48;;;;;;;10.85;7.22;;;24.80;57.60;;;;;;5033576;28;20037;-74
2022/10/09 07:11:23;;;;;;;11.88;7.88;;;24.70;57.50;;;;;;5031691;28;20041;-72
2022/10/09 07:13:52;;;;;;;10.93;7.22;;;24.90;57.50;;;;;;5033290;28;20707;-70
2022/10/09 07:16:20;;;;;;;12.80;7.22;;;24.80;57.20;;;;;;5031936;28;20030;-72
2022/10/09 07:18:47;;;;;;;14.10;6.95;;;24.90;58.10;;;;;;5033349;28;20045;-69
2022/10/09 07:21:13;;;;;;;12.70;6.82;;;24.90;60.60;;;;;;5033299;28;20139;-68
2022/10/09 07:23:39;;;;;;;13.65;7.70;;;25.00;61.10;;;;;;5033058;28;20036;-72
2022/10/09 07:26:20;;;;;;;9.27;6.82;;;24.90;60.50;;;;;;5031164;28;20452;-70
2022/10/09 07:28:47;;;;;;;8.43;6.47;;;24.90;60.20;;;;;;5032148;28;20030;-69
2022/10/09 07:31:14;;;;;;;10.98;6.20;;;25.00;59.90;;;;;;5032803;28;20040;-70
2022/10/09 07:33:40;;;;;;;6.70;5.60;;;24.90;59.60;;;;;;5030837;28;20049;-70
2022/10/09 07:36:07;;;;;;;10.98;6.60;;;25.00;59.50;;;;;;5013856;28;20045;-71
2022/10/09 07:38:33;;;;;;;6.50;5.55;;;25.00;59.30;;;;;;5030962;28;20482;-70
2022/10/09 07:41:01;;;;;;;7.15;5.13;;;25.10;59.20;;;;;;5032277;28;20030;-70
2022/10/09 07:43:28;;;;;;;7.03;5.15;;;25.10;59.00;;;;;;5032636;28;20029;-70
2022/10/09 07:45:58;;;;;;;9.02;5.93;;;25.00;58.50;;;;;;5031365;28;20041;-71
2022/10/09 07:48:24;;;;;;;8.43;5.28;;;25.20;58.00;;;;;;5033117;28;20061;-72
2022/10/09 07:50:50;;;;;;;12.32;5.82;;;25.20;57.70;;;;;;5031852;28;20052;-72
2022/10/09 07:53:16;;;;;;;10.55;5.75;;;25.20;57.50;;;;;;5014104;28;20490;-71
2022/10/09 07:55:47;;;;;;;10.45;4.93;;;25.30;57.40;;;;;;5032671;28;20041;-71
2022/10/09 07:58:14;;;;;;;10.18;5.10;;;25.20;57.30;;;;;;5032684;28;20038;-73
2022/10/09 08:00:40;;;;;;;8.35;5.38;;;25.30;57.20;;;;;;5031340;28;20029;-71
2022/10/09 08:03:06;;;;;;;16.02;6.25;;;25.30;57.00;;;;;;5032857;28;20502;-71
2022/10/09 08:05:33;;;;;;;7.35;5.03;;;25.30;56.90;;;;;;5031603;28;20053;-70
2022/10/09 08:07:59;;;;;;;12.63;5.43;;;25.20;56.80;;;;;;5031584;28;20057;-71
2022/10/09 08:10:27;;;;;;;10.82;6.05;;;25.30;56.80;;;;;;5031307;28;20483;-71
2022/10/09 08:12:53;;;;;;;12.13;6.22;;;25.20;56.80;;;;;;5031394;28;20056;-72
2022/10/09 08:15:19;;;;;;;12.25;5.72;;;25.20;56.90;;;;;;5031096;28;20393;-70
2022/10/09 08:17:46;;;;;;;8.57;5.07;;;25.20;57.00;;;;;;5031330;28;20037;-72
2022/10/09 08:20:12;;;;;;;10.52;5.88;;;25.20;56.90;;;;;;5031829;28;20044;-70
2022/10/09 08:22:38;;;;;;;6.75;5.07;;;25.20;56.70;;;;;;5032037;28;20036;-69
2022/10/09 08:25:04;;;;;;;7.97;4.88;;;25.20;56.70;;;;;;5016699;28;20038;-70
2022/10/09 08:27:30;;;;;;;8.75;4.60;;;25.30;56.70;;;;;;5011498;28;20029;-72
2022/10/09 08:29:56;;;;;;;7.78;4.68;;;25.20;56.70;;;;;;5011552;28;20474;-72
2022/10/09 08:32:22;;;;;;;7.32;5.22;;;25.20;56.70;;;;;;5011478;28;20037;-70
2022/10/09 08:34:48;;;;;;;10.15;5.55;;;25.20;56.70;;;;;;5011926;28;20053;-70
2022/10/09 08:37:14;;;;;;;6.20;5.32;;;25.10;56.60;;;;;;4994102;28;20065;-71
2022/10/09 08:39:40;;;;;;;7.07;5.70;;;25.10;56.50;;;;;;4994593;28;20041;-69
2022/10/09 08:42:25;;;;;;;9.60;4.85;;;25.30;56.50;;;;;;5011820;28;20034;-72
2022/10/09 08:44:52;;;;;;;9.15;5.65;;;25.20;56.40;;;;;;5011720;28;20034;-72
2022/10/09 08:47:33;;;;;;;10.85;4.05;;;25.30;56.40;;;;;;5012095;28;20450;-72
2022/10/09 08:50:13;;;;;;;3.20;2.85;;;25.20;55.10;;;;;;4994186;28;20041;-72
2022/10/09 08:53:04;;;;;;;7.30;4.10;;;25.20;56.80;;;;;;5012291;28;20054;-72
2022/10/09 08:55:39;;;;;;;8.27;4.38;;;25.40;55.10;;;;;;4913125;29;20052;-72
2022/10/09 08:58:06;;;;;;;8.70;5.32;;;25.50;50.90;;;;;;4897433;29;20051;-71
2022/10/09 09:00:44;;;;;;;4.82;3.97;;;25.60;52.80;;;;;;4913323;29;20474;-71
2022/10/09 09:03:46;;;;;;;1.73;1.60;;;25.60;53.90;;;;;;4874379;29;20084;-71
2022/10/09 09:06:30;;;;;;;1.20;1.20;;;25.50;54.00;;;;;;4890936;29;20505;-72
2022/10/09 09:09:04;;;;;;;7.63;3.80;;;25.60;54.90;;;;;;4901234;29;20049;-72
2022/10/09 09:11:36;;;;;;;2.88;1.17;;;25.70;56.40;;;;;;4894215;29;20043;-71
2022/10/09 09:14:13;;;;;;;1.02;0.98;;;25.90;57.60;;;;;;4903702;29;20501;-71
2022/10/09 09:16:48;;;;;;;6.45;3.08;;;26.00;58.90;;;;;;4894218;29;20131;-71
2022/10/09 09:19:39;;;;;;;2.45;1.55;;;26.00;58.90;;;;;;4894093;29;20498;-70
2022/10/09 09:22:12;;;;;;;3.60;2.50;;;26.00;57.80;;;;;;4900984;29;20040;-71
2022/10/09 09:24:51;;;;;;;3.50;2.65;;;26.00;56.60;;;;;;4897249;29;20085;-70
2022/10/09 09:27:20;;;;;;;1.25;1.13;;;26.10;57.60;;;;;;4906539;29;20032;-72
2022/10/09 09:30:08;;;;;;;11.10;2.50;;;26.10;56.20;;;;;;4894959;29;20051;-72
2022/10/09 09:32:35;;;;;;;6.13;2.53;;;26.00;51.60;;;;;;4943243;28;20046;-70
2022/10/09 09:35:33;;;;;;;2.00;1.90;;;26.00;52.60;;;;;;5019918;28;20069;-73
2022/10/09 09:37:59;;;;;;;1.45;1.35;;;26.00;52.50;;;;;;5031070;28;20493;-73
2022/10/09 09:40:30;;;;;;;7.68;3.25;;;26.10;52.70;;;;;;5029955;28;20033;-74
2022/10/09 09:42:58;;;;;;;3.97;2.08;;;26.20;52.30;;;;;;5031388;28;20083;-72
2022/10/09 09:45:25;;;;;;;1.75;1.27;;;26.10;53.20;;;;;;5031353;28;20045;-74
2022/10/09 09:48:05;;;;;;;6.53;3.13;;;26.10;53.40;;;;;;5031138;28;20029;-73
2022/10/09 09:50:41;;;;;;;3.78;2.35;;;26.10;51.30;;;;;;5031877;28;20128;-73
2022/10/09 09:53:25;;;;;;;5.22;2.65;;;26.20;51.00;;;;;;5030369;28;20043;-76
2022/10/09 09:55:52;;;;;;;3.35;2.47;;;26.20;51.10;;;;;;5031709;28;20117;-73
2022/10/09 09:58:20;;;;;;;3.58;2.60;;;26.00;51.00;;;;;;5030780;28;20040;-74
2022/10/09 10:01:00;;;;;;;4.55;2.53;;;26.00;50.20;;;;;;5011527;28;20081;-73
2022/10/09 10:03:27;;;;;;;3.70;3.00;;;26.00;51.00;;;;;;5012770;28;20045;-72
2022/10/09 10:05:53;;;;;;;1.75;1.60;;;26.00;49.30;;;;;;4996301;28;20056;-71
2022/10/09 10:08:33;;;;;;;11.73;3.05;;;26.00;50.90;;;;;;5012543;28;20042;-70
2022/10/09 10:11:05;;;;;;;3.20;1.58;;;25.90;49.90;;;;;;5012278;28;20041;-70
2022/10/09 10:13:38;;;;;;;10.98;4.97;;;26.00;53.40;;;;;;4992687;28;20070;-71
2022/10/09 10:16:07;;;;;;;3.30;2.45;;;26.40;53.60;;;;;;5008411;28;20040;-72
2022/10/09 10:18:41;;;;;;;5.03;3.03;;;26.60;53.60;;;;;;4996013;28;20061;-73
2022/10/09 10:21:14;;;;;;;4.22;3.15;;;26.50;46.70;;;;;;5011203;28;20057;-73
2022/10/09 10:23:52;;;;;;;9.27;5.00;;;26.20;49.20;;;;;;5011450;28;20052;-73
2022/10/09 10:26:35;;;;;;;3.85;2.80;;;26.20;48.40;;;;;;5005679;28;20503;-73
2022/10/09 10:29:37;;;;;;;7.40;4.05;;;26.30;49.80;;;;;;5002276;28;20111;-72
2022/10/09 10:32:08;;;;;;;1.48;1.38;;;26.20;51.90;;;;;;5003318;28;20038;-71
2022/10/09 10:34:47;;;;;;;7.03;3.47;;;26.20;53.80;;;;;;4992046;28;20392;-73
2022/10/09 10:37:13;;;;;;;5.28;2.42;;;26.30;55.10;;;;;;4977424;28;20125;-71
2022/10/09 10:39:45;;;;;;;8.38;4.85;;;26.20;53.60;;;;;;5014527;28;20537;-71
2022/10/09 10:42:32;;;;;;;6.15;4.25;;;26.30;50.90;;;;;;5023020;28;20386;-69
2022/10/09 10:45:12;;;;;;;13.38;5.97;;;26.30;50.20;;;;;;5014530;28;20433;-71
2022/10/09 10:47:44;;;;;;;12.65;6.15;;;26.20;50.70;;;;;;5013144;28;20502;-71
2022/10/09 10:50:15;;;;;;;13.85;6.03;;;26.10;50.20;;;;;;5012957;28;20030;-70
2022/10/09 10:53:02;;;;;;;9.73;5.65;;;26.20;50.30;;;;;;5014296;28;20072;-70
2022/10/09 10:55:38;;;;;;;12.40;7.38;;;26.10;50.20;;;;;;5014134;28;20467;-70
2022/10/09 10:58:28;;;;;;;12.77;6.85;;;26.10;47.90;;;;;;5011653;28;20053;-69
2022/10/09 11:01:05;;;;;;;13.30;6.93;;;26.10;48.10;;;;;;5014275;28;20466;-71
2022/10/09 11:04:03;;;;;;;12.02;7.10;;;26.00;47.50;;;;;;5014023;28;20541;-70
2022/10/09 11:07:02;;;;;;;14.70;6.78;;;26.00;49.30;;;;;;4994606;28;20058;-71
2022/10/09 11:10:09;;;;;;;11.07;7.85;;;25.90;47.60;;;;;;4994227;28;20376;-69
2022/10/09 11:13:03;;;;;;;11.35;7.22;;;25.90;46.20;;;;;;4951890;28;20043;-71
2022/10/09 11:15:47;;;;;;;11.95;6.88;;;25.90;46.10;;;;;;4952675;29;20035;-69
2022/10/09 11:18:35;;;;;;;13.05;6.40;;;25.60;45.90;;;;;;4967263;28;20057;-70
2022/10/09 11:21:22;;;;;;;7.70;5.85;;;25.70;49.80;;;;;;4955930;28;20050;-69
2022/10/09 11:24:16;;;;;;;9.43;6.57;;;25.60;49.80;;;;;;4971824;28;20059;-71
2022/10/09 11:26:50;;;;;;;9.35;6.47;;;25.70;48.10;;;;;;4972075;28;20039;-71
2022/10/09 11:29:28;;;;;;;10.10;7.75;;;25.60;47.00;;;;;;4954758;28;20031;-69
2022/10/09 11:32:02;;;;;;;7.38;5.20;;;25.60;48.20;;;;;;4953611;28;20035;-71
2022/10/09 11:34:34;;;;;;;11.20;5.53;;;25.50;50.30;;;;;;4952144;29;20118;-70
2022/10/09 11:37:05;;;;;;;18.67;6.27;;;25.60;52.20;;;;;;4951867;29;20063;-71
2022/10/09 11:39:32;;;;;;;6.45;4.97;;;25.50;52.30;;;;;;4951541;29;20035;-72
2022/10/09 11:41:59;;;;;;;9.23;5.97;;;25.60;52.40;;;;;;4951692;28;20039;-71
2022/10/09 11:44:31;;;;;;;11.23;5.35;;;25.70;52.20;;;;;;4951913;29;20050;-73
2022/10/09 11:47:08;;;;;;;11.03;6.20;;;25.70;52.30;;;;;;4951993;29;20178;-71
2022/10/09 11:49:54;;;;;;;10.10;4.82;;;25.60;52.50;;;;;;4975238;28;20591;-72
2022/10/09 11:52:29;;;;;;;8.88;6.05;;;25.60;52.90;;;;;;4991938;28;20034;-72
2022/10/09 11:55:05;;;;;;;7.65;4.75;;;25.70;53.20;;;;;;4991849;28;20082;-73
2022/10/09 11:57:32;;;;;;;12.48;6.07;;;25.70;53.40;;;;;;4995536;28;20034;-72
2022/10/09 12:00:06;;;;;;;11.20;5.57;;;25.70;56.70;;;;;;4991659;28;20026;-73
2022/10/09 12:02:33;;;;;;;9.88;6.30;;;25.80;57.10;;;;;;4992855;28;20371;-73
2022/10/09 12:04:59;;;;;;;10.85;5.05;;;25.60;55.40;;;;;;4999697;28;20062;-72
2022/10/09 12:07:37;;;;;;;6.70;3.95;;;25.70;55.00;;;;;;5012337;28;20061;-75
2022/10/09 12:10:05;;;;;;;13.40;8.02;;;25.70;53.70;;;;;;5011278;28;20038;-71
2022/10/09 12:12:31;;;;;;;8.68;5.07;;;25.80;53.50;;;;;;5012682;28;20041;-71
2022/10/09 12:15:08;;;;;;;12.85;7.75;;;25.70;53.50;;;;;;5032914;28;20049;-71
2022/10/09 12:17:35;;;;;;;8.75;5.88;;;25.80;52.50;;;;;;5025478;28;20042;-71
2022/10/09 12:20:06;;;;;;;7.97;5.50;;;25.60;53.20;;;;;;5031611;28;20029;-71
2022/10/09 12:22:41;;;;;;;8.30;5.28;;;25.60;53.20;;;;;;5031717;28;20044;-71
2022/10/09 12:25:24;;;;;;;3.90;3.00;;;25.60;53.30;;;;;;5031096;28;20355;-72
2022/10/09 12:27:54;;;;;;;4.45;3.42;;;25.60;52.60;;;;;;5030588;28;20030;-71
2022/10/09 12:30:32;;;;;;;9.98;6.25;;;25.60;52.90;;;;;;5030332;28;20037;-71
2022/10/09 12:33:13;;;;;;;6.90;4.65;;;25.60;53.00;;;;;;5029910;28;20497;-71
2022/10/09 12:35:44;;;;;;;8.93;5.63;;;25.60;53.00;;;;;;5031423;28;20397;-71
2022/10/09 12:38:28;;;;;;;13.93;5.82;;;25.60;52.90;;;;;;5029801;28;20393;-71
2022/10/09 12:40:59;;;;;;;12.13;7.45;;;25.60;52.70;;;;;;5031332;28;20553;-70
2022/10/09 12:43:25;;;;;;;14.50;6.25;;;25.60;51.80;;;;;;5031238;28;20474;-71
2022/10/09 12:45:53;;;;;;;12.18;4.72;;;25.60;52.70;;;;;;5029804;28;20037;-71
2022/10/09 12:48:22;;;;;;;6.82;4.97;;;25.60;52.70;;;;;;5031149;28;20510;-71
2022/10/09 12:50:48;;;;;;;8.18;5.25;;;25.60;52.50;;;;;;5031360;28;20116;-71
2022/10/09 12:53:19;;;;;;;8.63;5.65;;;25.60;52.30;;;;;;5030849;28;20533;-71
2022/10/09 12:55:54;;;;;;;6.28;5.13;;;25.60;52.00;;;;;;5031073;28;20095;-72
2022/10/09 12:58:34;;;;;;;6.63;4.43;;;25.60;52.40;;;;;;5029493;28;20040;-70
2022/10/09 13:01:04;;;;;;;7.10;5.53;;;25.60;52.60;;;;;;5031264;28;20109;-71
2022/10/09 13:03:35;;;;;;;7.90;5.45;;;25.60;52.10;;;;;;5029486;28;20406;-71